createdAt,value
2023-01-18T13:49:20.375Z,99477.13
2023-01-18T13:52:04.376Z,99488.66
2023-01-18T13:58:34.518Z,99486.38
2023-01-18T14:11:03.277Z,99495.42
2023-01-18T14:13:49.383Z,99489.41
2023-01-18T14:17:25.559Z,99482.60
2023-01-18T14:20:43.096Z,99478.48
2023-01-18T14:23:44.463Z,99484.94
2023-01-18T14:26:17.080Z,99502.81
2023-01-18T14:33:01.030Z,99524.80
2023-01-18T14:35:30.145Z,99536.50
2023-01-18T14:38:17.892Z,99540.09
2023-01-18T14:41:12.573Z,99558.32
2023-01-18T14:47:45.268Z,99575.59
2023-01-18T14:50:36.256Z,99588.73
2023-01-18T14:56:43.110Z,99609.23
2023-01-18T14:59:22.885Z,99615.58
2023-01-18T15:02:01.478Z,99622.48
2023-01-18T15:04:34.640Z,99629.51
2023-01-18T15:07:09.832Z,99635.17
2023-01-18T15:09:42.589Z,99646.44
2023-01-18T15:21:34.476Z,99706.38
2023-01-18T15:24:13.882Z,99714.66
2023-01-18T15:26:58.242Z,99729.92
2023-01-18T15:29:38.406Z,99737.00
2023-01-18T15:32:19.656Z,99735.35
2023-01-18T15:34:51.462Z,99741.47
2023-01-18T15:37:34.757Z,99743.23
2023-01-18T15:40:14.596Z,99757.27
2023-01-18T15:43:09.991Z,99767.77
2023-01-18T15:45:49.035Z,99774.80
2023-01-18T15:48:22.456Z,99778.98
2023-01-18T15:50:54.746Z,99791.39
2023-01-18T15:53:55.442Z,99789.92
2023-01-18T15:56:32.261Z,99803.23
2023-01-18T15:59:01.744Z,99822.39
2023-01-18T16:01:35.919Z,99835.64
2023-01-18T16:04:22.196Z,99842.41
2023-01-18T16:06:51.164Z,99842.35
2023-01-18T16:09:23.282Z,99847.80
2023-01-18T16:11:56.611Z,99858.36
2023-01-18T16:14:35.349Z,99857.09
2023-01-18T16:17:16.075Z,99864.99
2023-01-18T16:19:53.110Z,99859.27
2023-01-18T16:22:29.772Z,99865.27
2023-01-18T16:25:20.526Z,99867.15
2023-01-18T16:27:59.594Z,99869.12
2023-01-18T16:30:37.817Z,99869.23
2023-01-18T16:33:19.437Z,99870.53
2023-01-18T16:35:48.991Z,99870.56
2023-01-18T16:38:19.602Z,99873.89
2023-01-18T16:40:49.482Z,99874.53
2023-01-18T16:43:27.424Z,99876.88
2023-01-18T16:45:58.619Z,99879.31
2023-01-18T16:48:27.505Z,99892.72
2023-01-18T16:50:55.815Z,99901.61
2023-01-18T16:53:23.434Z,99916.64
2023-01-18T16:55:51.510Z,99926.23
2023-01-18T16:58:20.715Z,99947.34
2023-01-18T17:01:13.661Z,99956.08
2023-01-18T17:03:42.828Z,99967.42
2023-01-18T17:06:20.715Z,99975.17
2023-01-18T17:08:51.665Z,99982.58
2023-01-18T17:11:19.413Z,99987.45
2023-01-18T17:13:47.375Z,99982.60
2023-01-18T17:16:17.840Z,99982.67
2023-01-18T17:18:46.285Z,99994.35
2023-01-18T17:21:14.337Z,100005.15
2023-01-18T17:23:42.290Z,100014.29
2023-01-18T17:26:14.765Z,100020.10
2023-01-18T17:28:43.587Z,100025.55
2023-01-18T17:31:11.379Z,100027.91
2023-01-18T17:33:40.013Z,100031.13
2023-01-18T17:36:08.303Z,100037.08
2023-01-18T17:38:36.912Z,100048.64
2023-01-18T17:41:07.104Z,100056.66
2023-01-18T17:43:35.612Z,100058.56
2023-01-18T17:46:07.626Z,100067.96
2023-01-18T17:48:35.495Z,100072.50
2023-01-18T17:51:10.258Z,100069.76
2023-01-18T17:53:39.544Z,100066.55
2023-01-18T17:56:13.822Z,100066.95
2023-01-18T17:58:50.949Z,100070.91
2023-01-18T18:01:19.599Z,100067.96
2023-01-18T18:03:52.906Z,100074.73
2023-01-18T18:06:31.012Z,100077.05
2023-01-18T18:09:01.329Z,100079.97
2023-01-18T18:11:29.646Z,100095.64
2023-01-18T18:13:59.350Z,100108.11
2023-01-18T18:16:28.224Z,100120.88
2023-01-18T18:18:58.078Z,100131.77
2023-01-18T18:21:26.758Z,100138.25
2023-01-18T18:23:58.016Z,100138.77
2023-01-18T18:26:26.221Z,100137.47
2023-01-18T18:28:54.765Z,100133.16
2023-01-18T18:31:22.468Z,100131.00
2023-01-18T18:33:50.436Z,100131.73
2023-01-18T18:36:18.144Z,100137.27
2023-01-18T18:38:45.688Z,100134.27
2023-01-18T18:41:13.467Z,100138.92
2023-01-18T18:43:40.913Z,100147.87
2023-01-18T18:46:08.721Z,100153.42
2023-01-18T18:48:36.911Z,100160.59
2023-01-18T18:51:04.726Z,100161.15
2023-01-18T18:53:38.512Z,100159.11
2023-01-18T18:56:11.829Z,100158.52
2023-01-18T18:58:40.757Z,100162.84
2023-01-18T19:01:23.720Z,100156.00
2023-01-18T19:03:53.151Z,100161.36
2023-01-18T19:06:22.037Z,100168.24
2023-01-18T19:08:50.561Z,100167.78
2023-01-18T19:11:18.447Z,100170.05
2023-01-18T19:13:48.520Z,100181.18
2023-01-18T19:16:19.763Z,100180.88
2023-01-18T19:18:47.665Z,100181.60
2023-01-18T19:21:18.091Z,100187.32
2023-01-18T19:23:46.229Z,100194.38
2023-01-18T19:26:14.620Z,100195.52
2023-01-18T19:28:42.279Z,100192.54
2023-01-18T19:31:11.258Z,100194.52
2023-01-18T19:33:39.527Z,100204.16
2023-01-18T19:36:14.919Z,100212.90
2023-01-18T19:38:46.456Z,100203.98
2023-01-18T19:41:16.004Z,100205.75
2023-01-18T19:43:48.846Z,100207.71
2023-01-18T19:46:17.131Z,100210.98
2023-01-18T19:48:45.224Z,100206.61
2023-01-18T19:51:22.415Z,100205.39
2023-01-18T19:53:54.637Z,100211.48
2023-01-18T19:56:23.881Z,100211.04
2023-01-18T19:58:51.393Z,100205.23
2023-01-18T20:01:34.780Z,100208.67
2023-01-18T20:04:05.474Z,100205.70
2023-01-18T20:06:33.612Z,100203.54
2023-01-18T20:09:01.887Z,100208.57
2023-01-18T20:11:31.485Z,100214.73
2023-01-18T20:13:59.251Z,100214.67
2023-01-18T20:16:26.982Z,100212.84
2023-01-18T20:18:55.294Z,100214.64
2023-01-18T20:21:23.042Z,100217.27
2023-01-18T20:23:50.935Z,100212.56
2023-01-18T20:26:31.037Z,100212.20
2023-01-18T20:29:08.183Z,100219.69
2023-01-18T20:31:37.873Z,100222.77
2023-01-18T20:34:06.261Z,100226.42
2023-01-18T20:36:35.723Z,100232.42
2023-01-18T20:39:05.829Z,100233.86
2023-01-18T20:41:33.664Z,100235.38
2023-01-18T20:44:01.237Z,100237.59
2023-01-18T20:46:29.135Z,100235.82
2023-01-18T20:48:57.332Z,100233.31
2023-01-18T20:51:24.907Z,100238.77
2023-01-18T20:53:52.506Z,100243.85
2023-01-18T20:56:34.590Z,100235.94
2023-01-18T20:59:02.064Z,100230.77
2023-01-18T21:01:32.158Z,100233.49
2023-01-18T21:04:02.278Z,100235.46
2023-01-18T21:06:30.319Z,100231.90
2023-01-18T21:08:59.315Z,100235.27
2023-01-18T21:11:27.494Z,100238.69
2023-01-18T21:13:58.423Z,100242.02
2023-01-18T21:19:46.286Z,100238.98
2023-01-18T21:22:15.673Z,100228.09
2023-01-18T21:24:44.553Z,100232.25
2023-01-18T21:27:13.678Z,100235.36
2023-01-18T21:29:42.887Z,100232.83
2023-01-18T21:32:11.644Z,100230.34
2023-01-18T21:34:40.508Z,100231.09
2023-01-18T21:37:09.360Z,100234.23
2023-01-18T21:39:38.253Z,100241.40
2023-01-18T21:42:25.697Z,100246.81
2023-01-18T21:45:15.737Z,100248.05
2023-01-18T21:47:44.414Z,100240.80
2023-01-18T21:50:31.953Z,100245.30
2023-01-18T21:53:19.909Z,100243.98
2023-01-18T21:55:49.328Z,100254.23
2023-01-18T21:58:36.531Z,100253.27
2023-01-18T22:01:17.980Z,100245.58
2023-01-18T22:04:05.834Z,100244.23
2023-01-18T22:06:34.671Z,100233.43
2023-01-18T22:09:05.779Z,100224.19
2023-01-18T22:11:34.626Z,100222.55
2023-01-18T22:14:08.221Z,100223.25
2023-01-18T22:16:37.811Z,100225.64
2023-01-18T22:19:06.881Z,100223.48
2023-01-18T22:21:37.695Z,100211.59
2023-01-18T22:24:06.887Z,100196.54
2023-01-18T22:26:39.102Z,100197.02
2023-01-18T22:29:08.780Z,100198.55
2023-01-18T22:31:37.948Z,100209.17
2023-01-18T22:34:07.243Z,100208.71
2023-01-18T22:36:36.050Z,100211.85
2023-01-18T22:39:04.912Z,100217.20
2023-01-18T22:41:33.789Z,100220.42
2023-01-18T22:44:03.088Z,100218.77
2023-01-18T22:46:33.501Z,100219.30
2023-01-18T22:49:03.852Z,100221.65
